WetterOnline ( https://www.wetteronline.de )

Wetter aktuell Föritztal

Aktuelles Wetter: Coburg (323m)

6-stündlich | Neueste Meldungen
Ortszeit Temperatur Wetter
Sa, 23.10. 14:00 8.2° C bedeckt
Sa, 23.10. 8:00 1.7° C fast wolkenlos
Sa, 23.10. 2:00 4.6° C wolkenlos
Fr, 22.10. 20:00 7.7° C bedeckt
Fr, 22.10. 14:00 8.6° C leicht bewölkt
Fr, 22.10. 8:00 2.7° C bewölkt
Fr, 22.10. 2:00 3.8° C wolkenlos
Do, 21.10. 20:00 7.0° C Sprühregen
Ortszeit Temperatur Wetter
Sa, 23.10. 14:00 8.2° C bedeckt
Sa, 23.10. 13:50 8.2° C bedeckt
Sa, 23.10. 13:40 8.2° C bewölkt
Sa, 23.10. 13:30 8.1° C bewölkt
Sa, 23.10. 13:20 8.1° C bewölkt
Sa, 23.10. 13:10 8.0° C bedeckt
Sa, 23.10. 13:00 7.6° C wolkig
Sa, 23.10. 12:30 7.7° C wolkenlos
Sa, 23.10. 12:00 6.6° C fast wolkenlos
Sa, 23.10. 11:30 6.2° C wolkenlos
Sa, 23.10. 11:00 4.8° C wolkig
Ortszeit Relative Feuchte Sichtweite
Sa, 23.10. 14:00 68% 45 km
Sa, 23.10. 8:00 96% 13 km
Sa, 23.10. 2:00 93% 60 km
Fr, 22.10. 20:00 72% >70 km
Fr, 22.10. 14:00 58% 60 km
Fr, 22.10. 8:00 96% 18 km
Fr, 22.10. 2:00 97% 22 km
Do, 21.10. 20:00 85% 22 km
Ortszeit Relative Feuchte Sichtweite
Sa, 23.10. 14:00 68% 45 km
Sa, 23.10. 13:50 68% -
Sa, 23.10. 13:40 66% -
Sa, 23.10. 13:30 69% 40 km
Sa, 23.10. 13:20 69% -
Sa, 23.10. 13:10 73% -
Sa, 23.10. 13:00 73% 40 km
Sa, 23.10. 12:30 77% 40 km
Sa, 23.10. 12:00 76% 55 km
Sa, 23.10. 11:30 81% 30 km
Sa, 23.10. 11:00 89% 25 km
Ortszeit Niederschlagsmenge Niederschlagsart
Sa, 23.10. 14:00 0.0 l/m2 in 6 Std. -
Sa, 23.10. 8:00 1 l/m2 in 12 Std. -
Sa, 23.10. 2:00 1 l/m2 in 6 Std. Regen
Fr, 22.10. 20:00 0.1 l/m2 in 12 Std. Regen
Fr, 22.10. 14:00 0.0 l/m2 in 6 Std. -
Fr, 22.10. 8:00 3 l/m2 in 12 Std. -
Fr, 22.10. 2:00 3 l/m2 in 6 Std. Regen
Do, 21.10. 20:00 1 l/m2 in 12 Std. Regen
Ortszeit Niederschlagsmenge Niederschlagsart
Sa, 23.10. 14:00 0.0 l/m2 in 1 Std. -
Sa, 23.10. 13:50 keine Meldung -
Sa, 23.10. 13:40 keine Meldung -
Sa, 23.10. 13:30 0.0 l/m2 in 1 Std. -
Sa, 23.10. 13:20 keine Meldung -
Sa, 23.10. 13:10 keine Meldung -
Sa, 23.10. 13:00 0.0 l/m2 in 1 Std. -
Sa, 23.10. 12:30 0.0 l/m2 in 1 Std. -
Sa, 23.10. 12:00 0.0 l/m2 in 1 Std. -
Sa, 23.10. 11:30 0.0 l/m2 in 1 Std. -
Sa, 23.10. 11:00 0.0 l/m2 in 1 Std. -
Ortszeit Stärke Spitze Richtung
km/h Bft. km/h Grad Sektor
Sa, 23.10. 14:00 9 2 20 320° NW
Sa, 23.10. 8:00 7 2 11 250° W
Sa, 23.10. 2:00 7 2 40 300° NW
Fr, 22.10. 20:00 25 4 50 270° W
Fr, 22.10. 14:00 36 5 47 260° W
Fr, 22.10. 8:00 4 1 18 260° W
Fr, 22.10. 2:00 6 1 33 280° W
Do, 21.10. 20:00 29 5 65 310° NW
Ortszeit Stärke Spitze Richtung
km/h Bft. km/h Grad Sektor
Sa, 23.10. 14:00 9 2 19 320° NW
Sa, 23.10. 13:50 9 2 - 320° NW
Sa, 23.10. 13:40 11 2 - 320° NW
Sa, 23.10. 13:30 6 1 13 320° NW
Sa, 23.10. 13:20 6 1 - 320° NW
Sa, 23.10. 13:10 7 2 - 300° NW
Sa, 23.10. 13:00 9 2 20 260° W
Sa, 23.10. 12:30 11 2 14 270° W
Sa, 23.10. 12:00 7 2 13 300° NW
Sa, 23.10. 11:30 4 1 11 310° NW
Sa, 23.10. 11:00 4 1 7 280° W
Ortszeit Untergrenze Bedeckung Gattung
total tief tief mittel hoch
Sa, 23.10. 14:00 840 m 8/8 8/8 - - -
Sa, 23.10. 8:00 <30 m 0/8 0/8 - - -
Sa, 23.10. 2:00 - 0/8 0/8 - - -
Fr, 22.10. 20:00 840 m 8/8 8/8 - - -
Fr, 22.10. 14:00 1080 m 4/8 4/8 - - -
Fr, 22.10. 8:00 270 m 7/8 7/8 - - -
Fr, 22.10. 2:00 810 m 0/8 0/8 - - -
Do, 21.10. 20:00 900 m 7/8 7/8 - - -
Ortszeit Bedeckungsgrad in Achtel und Wolkenuntergrenze
Sa, 23.10. 14:00 1(840m) 8(1290m)
Sa, 23.10. 13:50 1(840m) 8(1290m)
Sa, 23.10. 13:40 2(840m) 7(1320m)
Sa, 23.10. 13:30 2(630m) 4(1020m) 7(1350m)
Sa, 23.10. 13:20 2(630m) 4(1020m) 7(1350m)
Sa, 23.10. 13:10 4(630m) 7(1050m) 8(1260m)
Sa, 23.10. 13:00 2(630m) 5(1110m) 7(1290m)
Sa, 23.10. 12:30 keine Wolken
Sa, 23.10. 12:00 1(720m)
Sa, 23.10. 11:30 keine Wolken
Sa, 23.10. 11:00 6(60m)
Ortszeit Luftdruck NN (hPa) Tendenz (hPa in 3 Std.)
Sa, 23.10. 14:00 1029 + 0,4
Sa, 23.10. 8:00 1027 + 1,2
Sa, 23.10. 2:00 1024 + 2,0
Fr, 22.10. 20:00 1019 + 1,4
Fr, 22.10. 14:00 1017 + 0,1
Fr, 22.10. 8:00 1017 + 0,4
Fr, 22.10. 2:00 1016 + 2,2
Do, 21.10. 20:00 1011 + 2,0
Ortszeit Luftdruck NN (hPa) Tendenz (hPa in 3 Std.)
Sa, 23.10. 14:00 1029 + 0,4
Sa, 23.10. 13:50 1029 keine Meldung
Sa, 23.10. 13:40 1029 keine Meldung
Sa, 23.10. 13:30 1029 + 0,6
Sa, 23.10. 13:20 1029 keine Meldung
Sa, 23.10. 13:10 1029 keine Meldung
Sa, 23.10. 13:00 1029 + 1,0
Sa, 23.10. 12:30 1029 + 1,3
Sa, 23.10. 12:00 1029 + 2,0
Sa, 23.10. 11:30 1029 + 2,5
Sa, 23.10. 11:00 1029 + 2,5
Ortszeit Schneehöhe (cm)
Sa, 23.10. 14:00 0
Sa, 23.10. 8:00 0
Sa, 23.10. 2:00 0
Fr, 22.10. 20:00 0
Fr, 22.10. 14:00 0
Fr, 22.10. 8:00 0
Fr, 22.10. 2:00 0
Do, 21.10. 20:00 0
Ortszeit Schneehöhe (cm)
Sa, 23.10. 14:00 0
Sa, 23.10. 13:50 0
Sa, 23.10. 13:40 0
Sa, 23.10. 13:30 0
Sa, 23.10. 13:20 0
Sa, 23.10. 13:10 0
Sa, 23.10. 13:00 0
Sa, 23.10. 12:30 0
Sa, 23.10. 12:00 0
Sa, 23.10. 11:30 0
Sa, 23.10. 11:00 0
Link zu dieser Seite / Seite empfehlen

Das Wetter in ...